Time;durP1;ratioP1;P1;durP2;ratioP2;P2;SDS_P1;SDS_P2;PMS_P1;PMS_P2;Temp;Humidity;BMP_temperature;BMP_pressure;BME280_temperature;BME280_humidity;BME280_pressure;Samples;Min_cycle;Max_cycle;Signal;HPM_P1;HPM_P2
2022/09/01 00:01:31;;;;;;;2.20;1.10;;;16.50;99.90;;;;;;5047733;28;20341;-78
2022/09/01 00:04:02;;;;;;;1.48;0.75;;;16.50;99.90;;;;;;5012031;28;20025;-78
2022/09/01 00:06:29;;;;;;;1.05;0.65;;;16.50;99.90;;;;;;5029680;28;20033;-78
2022/09/01 00:08:57;;;;;;;3.08;1.23;;;16.50;99.90;;;;;;5029138;28;20021;-77
2022/09/01 00:11:25;;;;;;;1.95;0.80;;;16.50;99.90;;;;;;5011768;28;20021;-78
2022/09/01 00:13:52;;;;;;;1.75;0.70;;;16.50;99.90;;;;;;5015195;28;20111;-79
2022/09/01 00:16:19;;;;;;;2.15;0.60;;;16.50;99.90;;;;;;5016035;28;20370;-79
2022/09/01 00:18:48;;;;;;;1.75;0.65;;;16.40;99.90;;;;;;5030707;28;20029;-78
2022/09/01 00:21:20;;;;;;;3.83;1.00;;;16.40;99.90;;;;;;5027855;28;20129;-79
2022/09/01 00:23:46;;;;;;;1.13;0.70;;;16.40;99.90;;;;;;5013691;28;20067;-78
2022/09/01 00:26:12;;;;;;;2.28;0.80;;;16.40;99.90;;;;;;5032155;28;20197;-78
2022/09/01 00:28:38;;;;;;;2.20;1.10;;;16.40;99.90;;;;;;5013040;28;20025;-78
2022/09/01 00:31:06;;;;;;;2.13;0.90;;;16.40;99.90;;;;;;5012554;28;20111;-78
2022/09/01 00:33:33;;;;;;;1.25;0.80;;;16.30;99.90;;;;;;5029427;28;20121;-77
2022/09/01 00:36:00;;;;;;;0.90;0.80;;;16.30;99.90;;;;;;5028772;28;20098;-78
2022/09/01 00:38:27;;;;;;;2.75;0.80;;;16.30;99.90;;;;;;5010343;28;20025;-78
2022/09/01 00:40:53;;;;;;;1.50;0.88;;;16.30;99.90;;;;;;5011863;28;20023;-78
2022/09/01 00:43:35;;;;;;;1.67;0.73;;;16.30;99.90;;;;;;5032308;28;20021;-79
2022/09/01 00:46:02;;;;;;;2.97;1.02;;;16.20;99.90;;;;;;5048390;28;20515;-78
2022/09/01 00:48:28;;;;;;;0.82;0.70;;;16.20;99.90;;;;;;5010859;28;20045;-79
2022/09/01 00:50:55;;;;;;;6.35;1.25;;;16.20;99.90;;;;;;5043266;28;20035;-77
2022/09/01 00:53:20;;;;;;;1.73;0.80;;;16.20;99.90;;;;;;5011393;28;20041;-78
2022/09/01 00:55:46;;;;;;;1.58;0.80;;;16.10;99.90;;;;;;5027431;28;20055;-78
2022/09/01 00:58:12;;;;;;;1.83;0.75;;;16.10;99.90;;;;;;5012650;28;20396;-77
2022/09/01 01:00:39;;;;;;;2.90;1.20;;;16.10;99.90;;;;;;5013898;28;20032;-79
2022/09/01 01:03:07;;;;;;;1.98;0.95;;;16.10;99.90;;;;;;5029601;28;20090;-78
2022/09/01 01:05:39;;;;;;;3.65;1.08;;;16.10;99.90;;;;;;5028654;28;20130;-78
2022/09/01 01:08:07;;;;;;;4.95;1.20;;;16.00;99.90;;;;;;5011047;28;20037;-78
2022/09/01 01:10:37;;;;;;;2.22;1.00;;;16.00;99.90;;;;;;5026452;28;20029;-78
2022/09/01 01:13:12;;;;;;;2.17;1.00;;;16.00;99.90;;;;;;5029734;28;20501;-78
2022/09/01 01:15:42;;;;;;;1.60;0.70;;;16.00;99.90;;;;;;5024540;28;20033;-78
2022/09/01 01:18:10;;;;;;;1.42;0.80;;;16.00;99.90;;;;;;5045690;28;20021;-78
2022/09/01 01:23:47;;;;;;;1.77;0.90;;;15.90;99.90;;;;;;5040922;28;20020;-79
2022/09/01 01:26:13;;;;;;;1.35;1.10;;;16.00;99.90;;;;;;5011758;28;20067;-78
2022/09/01 01:28:43;;;;;;;1.60;0.90;;;15.90;99.90;;;;;;5028933;28;20124;-77
2022/09/01 01:31:17;;;;;;;1.63;0.80;;;15.90;99.90;;;;;;5042785;28;20147;-77
2022/09/01 01:33:49;;;;;;;0.75;0.73;;;15.90;99.90;;;;;;5027887;28;20096;-78
2022/09/01 01:36:31;;;;;;;5.43;1.55;;;15.90;99.90;;;;;;5027198;28;20506;-79
2022/09/01 01:39:00;;;;;;;1.10;0.70;;;15.90;99.90;;;;;;5009174;28;20025;-79
2022/09/01 01:41:28;;;;;;;1.77;0.90;;;15.80;99.90;;;;;;5028418;28;20021;-78
2022/09/01 01:43:57;;;;;;;3.83;1.05;;;15.80;99.90;;;;;;5028773;28;20029;-78
2022/09/01 01:46:24;;;;;;;1.13;0.90;;;15.80;99.90;;;;;;5025799;28;20025;-78
2022/09/01 01:48:51;;;;;;;1.90;0.90;;;15.80;99.90;;;;;;5012916;28;20029;-78
2022/09/01 01:51:25;;;;;;;1.95;1.00;;;15.80;99.90;;;;;;5027683;28;20033;-78
2022/09/01 01:53:51;;;;;;;2.53;0.80;;;15.80;99.90;;;;;;5026232;28;20504;-78
2022/09/01 01:56:18;;;;;;;2.88;1.00;;;15.70;99.90;;;;;;5036807;28;20033;-78
2022/09/01 01:58:45;;;;;;;2.17;0.82;;;15.70;99.90;;;;;;5027375;28;20036;-78
2022/09/01 02:01:11;;;;;;;2.50;1.00;;;15.70;99.90;;;;;;5025159;28;20025;-78
2022/09/01 02:03:38;;;;;;;2.47;0.90;;;15.70;99.90;;;;;;5010007;28;20064;-78
2022/09/01 02:06:08;;;;;;;1.13;0.90;;;15.70;99.90;;;;;;5047496;28;20024;-79
2022/09/01 02:08:36;;;;;;;1.20;0.70;;;15.60;99.90;;;;;;5014248;28;20029;-78
2022/09/01 02:11:04;;;;;;;2.58;0.90;;;15.60;99.90;;;;;;5032541;28;20025;-78
2022/09/01 02:13:30;;;;;;;2.47;0.85;;;15.60;99.90;;;;;;5029273;28;20033;-79
2022/09/01 02:16:01;;;;;;;2.03;1.00;;;15.50;99.90;;;;;;5033747;28;20079;-78
2022/09/01 02:18:36;;;;;;;3.83;1.02;;;15.60;99.90;;;;;;5053666;28;20029;-79
2022/09/01 02:21:10;;;;;;;2.60;1.20;;;15.50;99.90;;;;;;5069630;28;20025;-79
2022/09/01 02:23:39;;;;;;;3.00;1.10;;;15.60;99.90;;;;;;5067449;28;20043;-78
2022/09/01 02:26:10;;;;;;;2.65;1.27;;;15.60;99.90;;;;;;5060179;28;20043;-78
2022/09/01 02:28:41;;;;;;;1.67;0.80;;;15.60;99.90;;;;;;5015070;28;20025;-79
2022/09/01 02:31:08;;;;;;;2.70;1.40;;;15.50;99.90;;;;;;5049670;28;20106;-78
2022/09/01 02:33:36;;;;;;;2.67;1.10;;;15.50;99.90;;;;;;5030627;28;20132;-78
2022/09/01 02:36:11;;;;;;;3.25;1.08;;;15.50;99.90;;;;;;5030376;28;20055;-78
2022/09/01 02:38:41;;;;;;;2.60;0.90;;;15.40;99.90;;;;;;5029589;28;20025;-79
2022/09/01 02:41:07;;;;;;;2.30;1.43;;;15.40;99.90;;;;;;5013119;28;20025;-79
2022/09/01 02:43:33;;;;;;;2.10;1.10;;;15.40;99.90;;;;;;5030529;28;20283;-79
2022/09/01 02:46:01;;;;;;;1.80;1.30;;;15.40;99.90;;;;;;5045724;28;20037;-78
2022/09/01 02:48:35;;;;;;;2.05;1.00;;;15.40;99.90;;;;;;5030775;28;20524;-78
2022/09/01 02:51:06;;;;;;;2.75;1.20;;;15.40;99.90;;;;;;5027037;28;20033;-78
2022/09/01 02:53:33;;;;;;;1.38;0.95;;;15.40;99.90;;;;;;5030607;28;20123;-78
2022/09/01 02:56:01;;;;;;;2.05;1.30;;;15.30;99.90;;;;;;5046797;28;20144;-79
2022/09/01 02:58:29;;;;;;;1.67;1.08;;;15.30;99.90;;;;;;5029760;28;20071;-79
2022/09/01 03:00:56;;;;;;;1.30;0.95;;;15.30;99.90;;;;;;5029285;28;20033;-78
2022/09/01 03:03:22;;;;;;;1.85;1.00;;;15.30;99.90;;;;;;5030968;28;20029;-79
2022/09/01 03:05:55;;;;;;;4.78;1.40;;;15.30;99.90;;;;;;5013579;28;20024;-78
2022/09/01 03:08:23;;;;;;;1.40;0.82;;;15.20;99.90;;;;;;5030475;28;20037;-78
2022/09/01 03:10:50;;;;;;;2.97;1.20;;;15.20;99.90;;;;;;5048765;28;20114;-78
2022/09/01 03:13:22;;;;;;;1.40;0.93;;;15.20;99.90;;;;;;5013157;28;20114;-76
2022/09/01 03:15:49;;;;;;;2.28;1.20;;;15.20;99.90;;;;;;5030466;28;20029;-76
2022/09/01 03:18:17;;;;;;;2.95;1.00;;;15.10;99.90;;;;;;5047169;28;20031;-78
2022/09/01 03:20:45;;;;;;;3.00;1.30;;;15.10;99.90;;;;;;5044421;28;20115;-79
2022/09/01 03:23:14;;;;;;;1.67;1.00;;;15.10;99.90;;;;;;5054040;28;20587;-79
2022/09/01 03:25:44;;;;;;;1.98;1.10;;;15.20;99.90;;;;;;5052250;28;20048;-78
2022/09/01 03:28:12;;;;;;;1.70;1.17;;;15.10;99.90;;;;;;5036963;28;20108;-78
2022/09/01 03:30:42;;;;;;;1.80;1.20;;;15.10;99.90;;;;;;5044702;28;20041;-77
2022/09/01 03:33:09;;;;;;;1.42;1.08;;;15.10;99.90;;;;;;5044278;28;20186;-80
2022/09/01 03:35:36;;;;;;;2.22;0.95;;;15.10;99.90;;;;;;5031534;28;20090;-78
2022/09/01 03:38:02;;;;;;;1.60;0.88;;;15.10;99.90;;;;;;5029681;28;20357;-77
2022/09/01 03:40:34;;;;;;;1.60;1.00;;;15.00;99.90;;;;;;5036922;28;20106;-79
2022/09/01 03:43:03;;;;;;;4.30;1.40;;;15.00;99.90;;;;;;5033011;28;20209;-77
2022/09/01 03:45:34;;;;;;;1.95;1.00;;;15.00;99.90;;;;;;5037740;28;20045;-78
2022/09/01 03:48:07;;;;;;;2.88;0.95;;;15.00;99.90;;;;;;5052665;28;20485;-79
2022/09/01 03:50:37;;;;;;;3.80;1.08;;;15.00;99.90;;;;;;5038143;28;20024;-79
2022/09/01 03:53:03;;;;;;;3.88;1.30;;;14.90;99.90;;;;;;5032359;28;20051;-78
2022/09/01 03:55:33;;;;;;;2.33;1.10;;;14.90;99.90;;;;;;5016250;28;20033;-77
2022/09/01 03:58:05;;;;;;;1.95;1.10;;;14.90;99.90;;;;;;5021057;28;20446;-78
2022/09/01 04:00:37;;;;;;;1.85;1.13;;;14.90;99.90;;;;;;5015735;28;20047;-78
2022/09/01 04:03:06;;;;;;;2.90;1.40;;;14.90;99.90;;;;;;5030856;28;20056;-78
2022/09/01 04:05:36;;;;;;;2.25;1.20;;;14.90;99.90;;;;;;5046864;28;20021;-78
2022/09/01 04:08:05;;;;;;;3.15;1.33;;;14.90;99.90;;;;;;5015075;28;20029;-78
2022/09/01 04:10:40;;;;;;;2.65;1.10;;;14.80;99.90;;;;;;5011877;28;20114;-78
2022/09/01 04:13:10;;;;;;;2.85;1.50;;;14.90;99.90;;;;;;5030286;28;20065;-78
2022/09/01 04:15:37;;;;;;;1.90;1.15;;;14.80;99.90;;;;;;5013857;28;20025;-79
2022/09/01 04:18:18;;;;;;;3.38;1.30;;;14.80;99.90;;;;;;5048706;28;20037;-78
2022/09/01 04:20:49;;;;;;;;;;;14.80;99.90;;;;;;5012860;28;20401;-79
2022/09/01 04:23:20;;;;;;;1.70;1.35;;;14.80;99.90;;;;;;5029174;28;20126;-78
2022/09/01 04:25:49;;;;;;;3.33;1.77;;;14.80;99.90;;;;;;5030030;28;20065;-77
2022/09/01 04:28:21;;;;;;;4.70;1.83;;;14.80;99.90;;;;;;5033901;28;20055;-78
2022/09/01 04:30:56;;;;;;;2.78;1.30;;;14.70;99.90;;;;;;5013133;28;20824;-78
2022/09/01 04:33:36;;;;;;;5.05;1.58;;;14.70;99.90;;;;;;5030149;28;20133;-79
2022/09/01 04:36:21;;;;;;;9.00;1.98;;;14.70;99.90;;;;;;5045463;28;20056;-79
2022/09/01 04:38:49;;;;;;;3.83;1.50;;;14.70;99.90;;;;;;5028361;28;20057;-77
2022/09/01 04:41:16;;;;;;;3.53;1.60;;;14.70;99.90;;;;;;5029119;28;20021;-79
2022/09/01 04:43:46;;;;;;;3.13;1.20;;;14.70;99.90;;;;;;5012515;28;20033;-78
2022/09/01 04:46:15;;;;;;;2.70;1.17;;;14.70;99.90;;;;;;5030129;28;20028;-78
2022/09/01 04:48:43;;;;;;;2.47;1.13;;;14.60;99.90;;;;;;5025778;28;20038;-79
2022/09/01 04:51:11;;;;;;;2.65;1.40;;;14.60;99.90;;;;;;5029674;28;20028;-79
2022/09/01 04:53:39;;;;;;;2.38;1.30;;;14.60;99.90;;;;;;5012283;28;20029;-78
2022/09/01 04:56:08;;;;;;;3.00;1.40;;;14.60;99.90;;;;;;5031504;28;20064;-78
2022/09/01 04:58:35;;;;;;;1.63;1.00;;;14.60;99.90;;;;;;5011863;28;20025;-78
2022/09/01 05:01:12;;;;;;;2.25;1.52;;;15.30;99.90;;;;;;5028197;28;20505;-79
2022/09/01 05:03:39;;;;;;;5.97;1.85;;;15.80;99.90;;;;;;5011758;28;20037;-78
2022/09/01 05:06:12;;;;;;;2.78;1.60;;;15.40;99.90;;;;;;5046884;28;20036;-80
2022/09/01 05:08:39;;;;;;;6.90;1.92;;;15.20;99.90;;;;;;5013309;28;20489;-76
2022/09/01 05:11:06;;;;;;;3.10;1.30;;;15.10;99.90;;;;;;5030346;28;20123;-75
2022/09/01 05:13:34;;;;;;;2.50;1.13;;;15.00;99.90;;;;;;5032671;28;20029;-76
2022/09/01 05:16:04;;;;;;;6.10;1.98;;;15.00;99.90;;;;;;5019337;28;20088;-77
2022/09/01 05:18:31;;;;;;;4.75;2.10;;;14.90;99.90;;;;;;5045421;28;20050;-80
2022/09/01 05:20:57;;;;;;;3.13;1.75;;;14.90;99.90;;;;;;5022329;28;20365;-71
2022/09/01 05:23:25;;;;;;;4.57;1.67;;;14.90;99.90;;;;;;5049071;28;20105;-78
2022/09/01 05:25:53;;;;;;;5.25;1.63;;;14.90;99.90;;;;;;5027828;28;20033;-78
2022/09/01 05:28:24;;;;;;;4.28;1.70;;;14.90;99.90;;;;;;5016427;28;20036;-78
2022/09/01 05:30:53;;;;;;;3.05;1.70;;;14.90;99.90;;;;;;5036776;28;20036;-79
2022/09/01 05:33:20;;;;;;;2.67;1.52;;;14.90;99.90;;;;;;5037704;28;20032;-79
2022/09/01 05:36:00;;;;;;;17.45;1.80;;;14.90;99.90;;;;;;5046656;28;20154;-76
2022/09/01 05:38:26;;;;;;;2.05;1.30;;;15.00;99.90;;;;;;5048837;28;20028;-78
2022/09/01 05:41:05;;;;;;;2.58;1.60;;;15.00;99.90;;;;;;5008802;28;20527;-78
2022/09/01 05:43:33;;;;;;;5.82;1.80;;;15.00;99.90;;;;;;5051261;28;20061;-77
2022/09/01 05:46:00;;;;;;;4.47;1.30;;;15.00;99.90;;;;;;5033158;28;20501;-76
2022/09/01 05:48:30;;;;;;;4.47;1.60;;;15.10;99.90;;;;;;5050365;28;20111;-78
2022/09/01 05:50:58;;;;;;;3.72;1.45;;;15.10;99.90;;;;;;5028550;28;20033;-78
2022/09/01 05:53:27;;;;;;;2.50;1.55;;;15.20;99.90;;;;;;5035097;28;20029;-77
2022/09/01 05:55:55;;;;;;;5.40;2.00;;;15.20;99.90;;;;;;5052360;28;20555;-79
2022/09/01 05:58:24;;;;;;;3.13;1.60;;;15.20;99.90;;;;;;5033716;28;20025;-80
2022/09/01 06:00:52;;;;;;;3.55;1.70;;;15.20;99.90;;;;;;5047161;28;20094;-78
2022/09/01 06:03:20;;;;;;;2.70;1.63;;;15.30;99.90;;;;;;5051601;28;20488;-79
2022/09/01 06:05:51;;;;;;;8.43;3.17;;;15.30;99.90;;;;;;5015601;28;20040;-76
2022/09/01 06:08:20;;;;;;;8.52;2.90;;;15.40;99.90;;;;;;5035758;28;20106;-79
2022/09/01 06:10:49;;;;;;;7.55;2.80;;;15.40;99.90;;;;;;5039966;28;20029;-79
2022/09/01 06:13:16;;;;;;;7.00;2.72;;;15.40;99.90;;;;;;5028256;28;20110;-76
2022/09/01 06:15:43;;;;;;;7.13;2.80;;;15.50;99.90;;;;;;5054645;28;20381;-80
2022/09/01 06:18:12;;;;;;;5.85;1.88;;;15.50;99.90;;;;;;5045361;28;20024;-80
2022/09/01 06:20:43;;;;;;;8.63;2.45;;;15.60;99.90;;;;;;5028472;28;20025;-80
2022/09/01 06:23:13;;;;;;;6.10;2.67;;;15.60;99.90;;;;;;5027813;28;20854;-79
2022/09/01 06:25:44;;;;;;;4.75;1.60;;;15.60;99.90;;;;;;5028291;28;20127;-80
2022/09/01 06:28:14;;;;;;;4.60;1.80;;;15.70;99.90;;;;;;5064324;28;20055;-80
2022/09/01 06:30:41;;;;;;;5.32;1.60;;;15.70;99.90;;;;;;5028097;28;20037;-80
2022/09/01 06:33:10;;;;;;;4.22;1.90;;;15.70;99.90;;;;;;5043239;28;20029;-80
2022/09/01 06:35:37;;;;;;;4.60;1.55;;;15.80;99.90;;;;;;5044194;28;20029;-79
2022/09/01 06:38:05;;;;;;;2.50;1.27;;;15.80;99.90;;;;;;5038256;28;20124;-79
2022/09/01 06:40:32;;;;;;;5.03;1.55;;;15.80;99.90;;;;;;5070562;28;20254;-80
2022/09/01 06:43:06;;;;;;;11.10;1.80;;;15.90;99.90;;;;;;5061987;28;20059;-79
2022/09/01 06:45:40;;;;;;;6.25;1.55;;;16.00;99.90;;;;;;5043740;28;20025;-77
2022/09/01 06:48:07;;;;;;;4.65;1.10;;;16.00;99.90;;;;;;5041440;28;20136;-80
2022/09/01 06:50:34;;;;;;;5.70;1.00;;;16.00;99.90;;;;;;5042644;28;20041;-79
2022/09/01 06:53:09;;;;;;;3.15;1.42;;;16.00;99.90;;;;;;5041213;28;20059;-80
2022/09/01 06:55:40;;;;;;;7.65;1.48;;;16.10;99.90;;;;;;5057768;28;20025;-79
2022/09/01 06:58:08;;;;;;;6.18;1.38;;;16.10;99.90;;;;;;5041081;28;20024;-79
2022/09/01 07:00:40;;;;;;;4.00;1.10;;;16.20;99.90;;;;;;5039784;28;20097;-78
2022/09/01 07:03:12;;;;;;;3.60;1.00;;;16.20;99.90;;;;;;5042974;28;20497;-80
2022/09/01 07:05:46;;;;;;;2.10;1.00;;;16.30;99.90;;;;;;5043159;28;20118;-79
2022/09/01 07:08:18;;;;;;;4.35;1.00;;;16.40;99.90;;;;;;5061753;28;20501;-79
2022/09/01 07:10:50;;;;;;;3.90;1.15;;;16.40;99.90;;;;;;5061423;28;20104;-80
2022/09/01 07:13:22;;;;;;;1.85;1.10;;;16.50;99.90;;;;;;5043648;28;20057;-80
2022/09/01 07:15:54;;;;;;;2.63;1.00;;;16.50;99.90;;;;;;5042419;28;20033;-81
2022/09/01 07:18:21;;;;;;;;;;;16.60;99.90;;;;;;5045614;28;20039;-81
2022/09/01 07:20:47;;;;;;;2.03;0.85;;;16.60;99.90;;;;;;5027142;28;19920;-80
2022/09/01 07:23:16;;;;;;;5.28;0.90;;;16.70;99.90;;;;;;5025439;28;20032;-79
2022/09/01 07:25:44;;;;;;;3.90;0.80;;;16.70;99.90;;;;;;5059381;28;20037;-82
2022/09/01 07:28:12;;;;;;;2.72;0.77;;;16.80;99.90;;;;;;5059837;28;20518;-79
2022/09/01 07:30:47;;;;;;;2.70;0.93;;;16.80;99.90;;;;;;5026603;28;20040;-79
2022/09/01 07:33:19;;;;;;;2.70;1.10;;;16.80;99.90;;;;;;5046427;28;20033;-78
2022/09/01 07:35:46;;;;;;;2.58;0.70;;;16.90;99.90;;;;;;5022791;28;20047;-79
2022/09/01 07:38:12;;;;;;;1.75;1.02;;;16.90;99.90;;;;;;5040230;28;20020;-80
2022/09/01 07:40:40;;;;;;;3.47;1.30;;;17.00;99.90;;;;;;5044490;28;20025;-80
2022/09/01 07:43:21;;;;;;;2.70;0.90;;;17.00;99.90;;;;;;5043040;28;20599;-80
2022/09/01 07:45:48;;;;;;;4.77;1.23;;;17.10;99.90;;;;;;5042946;28;20055;-79
2022/09/01 07:48:19;;;;;;;4.57;1.40;;;17.20;99.90;;;;;;5056004;28;20052;-79
2022/09/01 07:50:46;;;;;;;1.48;0.95;;;17.20;99.90;;;;;;5024083;28;20512;-78
2022/09/01 07:53:28;;;;;;;1.50;0.85;;;17.20;99.90;;;;;;5045546;28;20029;-79
2022/09/01 07:55:55;;;;;;;2.50;0.77;;;17.20;99.90;;;;;;5028680;28;20024;-79
2022/09/01 07:58:24;;;;;;;2.17;0.70;;;17.30;99.90;;;;;;5045752;28;20034;-79
2022/09/01 08:00:52;;;;;;;2.17;0.65;;;17.30;99.90;;;;;;5056731;28;20029;-79
2022/09/01 08:03:20;;;;;;;2.42;0.70;;;17.30;99.90;;;;;;5062731;28;20500;-79
2022/09/01 08:05:47;;;;;;;2.47;0.80;;;17.40;99.90;;;;;;5042938;28;20094;-79
2022/09/01 08:08:14;;;;;;;1.52;0.50;;;17.50;99.90;;;;;;5058933;28;20029;-80
2022/09/01 08:10:41;;;;;;;3.45;0.75;;;17.50;99.90;;;;;;5042166;28;20071;-79
2022/09/01 08:13:08;;;;;;;2.15;0.70;;;17.50;99.90;;;;;;5045455;28;20048;-80
2022/09/01 08:15:36;;;;;;;2.00;0.50;;;17.60;99.90;;;;;;5060989;28;20083;-80
2022/09/01 08:18:02;;;;;;;1.95;0.70;;;17.60;99.90;;;;;;5040163;28;20028;-80
2022/09/01 08:20:29;;;;;;;3.40;1.02;;;17.70;99.90;;;;;;5025259;28;20029;-79
2022/09/01 08:22:55;;;;;;;2.95;1.40;;;17.70;99.90;;;;;;5039007;28;20641;-79
2022/09/01 08:25:22;;;;;;;2.15;1.00;;;17.70;99.90;;;;;;5040006;28;20037;-79
2022/09/01 08:27:47;;;;;;;3.47;1.00;;;17.80;99.90;;;;;;5061678;28;20048;-80
2022/09/01 08:30:13;;;;;;;1.10;0.60;;;17.90;99.90;;;;;;5042588;28;20497;-79
2022/09/01 08:32:41;;;;;;;2.72;0.73;;;17.90;99.90;;;;;;5022689;28;20029;-80
2022/09/01 08:35:09;;;;;;;2.08;0.60;;;17.90;99.90;;;;;;5038729;28;20025;-79
2022/09/01 08:37:35;;;;;;;2.95;0.50;;;17.90;99.90;;;;;;5026279;28;20045;-79
2022/09/01 08:40:01;;;;;;;2.80;0.60;;;18.00;99.40;;;;;;5057911;28;20523;-78
2022/09/01 08:42:49;;;;;;;1.20;0.65;;;18.00;99.00;;;;;;5061568;28;20025;-79
2022/09/01 08:45:23;;;;;;;1.80;0.50;;;18.10;98.60;;;;;;5056196;28;20033;-79
2022/09/01 08:47:56;;;;;;;0.88;0.60;;;18.10;97.80;;;;;;5037812;28;20565;-79
2022/09/01 08:50:22;;;;;;;1.45;0.50;;;18.20;97.30;;;;;;5059429;28;20463;-79
2022/09/01 08:53:27;;;;;;;1.95;0.60;;;18.30;96.90;;;;;;5037536;28;20059;-79
2022/09/01 08:55:57;;;;;;;2.17;0.60;;;18.30;96.20;;;;;;5035163;28;20573;-79
2022/09/01 08:58:24;;;;;;;0.63;0.40;;;18.30;96.10;;;;;;5037897;28;20021;-80
2022/09/01 09:00:56;;;;;;;1.27;0.50;;;18.30;96.30;;;;;;5037348;28;20396;-80
2022/09/01 09:03:57;;;;;;;0.90;0.52;;;18.40;95.70;;;;;;5021206;28;20378;-79
2022/09/01 09:06:28;;;;;;;0.82;0.45;;;18.40;95.70;;;;;;5014987;28;20115;-79
2022/09/01 09:09:02;;;;;;;;;;;18.40;95.80;;;;;;5038535;28;20099;-79
2022/09/01 09:11:50;;;;;;;2.35;0.40;;;18.50;95.80;;;;;;5023686;28;19919;-80
2022/09/01 09:14:33;;;;;;;1.23;0.88;;;18.50;95.80;;;;;;5053262;28;20493;-79
2022/09/01 09:16:59;;;;;;;1.63;0.50;;;18.60;94.90;;;;;;5040621;28;20399;-79
2022/09/01 09:19:33;;;;;;;2.03;0.40;;;18.70;94.20;;;;;;5048697;28;20055;-81
2022/09/01 09:22:02;;;;;;;1.35;0.60;;;18.70;94.30;;;;;;5027188;28;20029;-81
2022/09/01 09:24:46;;;;;;;0.63;0.40;;;18.70;94.40;;;;;;5041871;28;20020;-81
2022/09/01 09:27:22;;;;;;;0.95;0.55;;;18.80;93.00;;;;;;5043130;28;20039;-78
2022/09/01 09:29:56;;;;;;;0.85;0.43;;;18.90;93.20;;;;;;5055765;28;20043;-80
2022/09/01 09:32:40;;;;;;;0.77;0.50;;;18.80;93.40;;;;;;5024515;28;20067;-79
2022/09/01 09:35:35;;;;;;;2.03;0.63;;;18.80;91.40;;;;;;5056263;28;20029;-79
2022/09/01 09:38:17;;;;;;;0.32;0.32;;;18.90;91.00;;;;;;5039240;28;20021;-79
2022/09/01 09:41:05;;;;;;;0.68;0.40;;;18.90;91.20;;;;;;5058573;28;20037;-81
2022/09/01 09:43:45;;;;;;;1.67;0.60;;;18.90;91.00;;;;;;5042777;28;20028;-80
2022/09/01 09:46:32;;;;;;;0.60;0.32;;;19.00;90.00;;;;;;5024804;28;20380;-81
2022/09/01 09:49:18;;;;;;;1.63;0.60;;;18.90;90.40;;;;;;5038957;28;20215;-80
2022/09/01 09:51:50;;;;;;;1.05;0.52;;;19.00;91.10;;;;;;5023209;28;20025;-79
2022/09/01 09:54:27;;;;;;;2.08;0.60;;;19.10;90.80;;;;;;5022169;28;20056;-79
2022/09/01 09:57:10;;;;;;;2.28;0.90;;;19.20;90.70;;;;;;5049875;28;20073;-80
2022/09/01 09:59:41;;;;;;;0.70;0.50;;;19.20;91.10;;;;;;5049703;28;20513;-81
2022/09/01 10:02:41;;;;;;;2.65;0.70;;;19.30;90.80;;;;;;5069074;28;20085;-81
2022/09/01 10:05:34;;;;;;;2.28;0.52;;;19.40;90.80;;;;;;5038154;28;20052;-80
2022/09/01 10:08:00;;;;;;;0.95;0.80;;;19.50;91.20;;;;;;5018642;28;20404;-80
2022/09/01 10:10:35;;;;;;;3.10;0.63;;;19.50;91.00;;;;;;5021857;28;20022;-79
2022/09/01 10:13:01;;;;;;;2.03;0.60;;;19.50;91.70;;;;;;5056914;28;20036;-79
2022/09/01 10:15:30;;;;;;;2.25;0.85;;;19.60;91.50;;;;;;5018946;28;20253;-80
2022/09/01 10:18:13;;;;;;;1.13;0.60;;;19.80;91.60;;;;;;5040557;28;20029;-80
2022/09/01 10:20:58;;;;;;;1.00;0.50;;;19.80;90.80;;;;;;5023562;28;20035;-79
2022/09/01 10:23:26;;;;;;;2.20;0.55;;;20.10;88.10;;;;;;5050707;28;20025;-80
2022/09/01 10:25:59;;;;;;;2.30;0.55;;;20.20;86.20;;;;;;5048182;28;20036;-79
2022/09/01 10:28:26;;;;;;;0.75;0.60;;;20.20;87.00;;;;;;5045305;28;20040;-80
2022/09/01 10:30:53;;;;;;;2.22;0.50;;;20.20;85.30;;;;;;5061704;28;20048;-79
2022/09/01 10:33:20;;;;;;;1.38;0.70;;;20.20;85.50;;;;;;5026678;28;20029;-79
2022/09/01 10:35:50;;;;;;;0.95;0.70;;;20.10;86.50;;;;;;5064129;28;20459;-78
2022/09/01 10:38:24;;;;;;;1.85;0.60;;;19.90;86.90;;;;;;5028746;28;20374;-79
2022/09/01 10:41:07;;;;;;;0.80;0.50;;;19.80;85.40;;;;;;5049390;28;20414;-79
2022/09/01 10:43:39;;;;;;;7.30;0.73;;;19.60;85.50;;;;;;5032263;28;20041;-80
2022/09/01 10:46:10;;;;;;;1.00;0.50;;;19.60;84.70;;;;;;5029085;28;20036;-79
2022/09/01 10:48:37;;;;;;;0.73;0.40;;;19.50;82.10;;;;;;5046592;28;20047;-79
2022/09/01 10:51:12;;;;;;;1.83;0.43;;;19.60;82.10;;;;;;5064331;28;20028;-80
2022/09/01 10:53:40;;;;;;;0.40;0.40;;;19.60;83.50;;;;;;5047986;28;20025;-81
2022/09/01 10:56:21;;;;;;;1.13;0.50;;;19.60;83.90;;;;;;5068933;28;20028;-80
2022/09/01 10:58:59;;;;;;;4.03;0.60;;;19.70;83.90;;;;;;5046731;28;20033;-80
2022/09/01 11:01:40;;;;;;;1.17;0.63;;;19.70;84.30;;;;;;5061199;28;20025;-79
2022/09/01 11:04:29;;;;;;;2.03;0.60;;;19.80;84.60;;;;;;5050305;28;20079;-79
2022/09/01 11:07:00;;;;;;;1.10;0.40;;;19.80;83.40;;;;;;5039447;28;20049;-80
2022/09/01 11:09:29;;;;;;;0.57;0.40;;;19.80;82.80;;;;;;5054639;28;20017;-79
2022/09/01 11:12:01;;;;;;;1.23;0.50;;;19.80;83.10;;;;;;5056612;28;20370;-79
2022/09/01 11:14:34;;;;;;;0.50;0.50;;;19.90;81.60;;;;;;5033437;28;20064;-79
2022/09/01 11:17:21;;;;;;;0.95;0.50;;;19.90;82.00;;;;;;5034689;28;20059;-80
2022/09/01 11:19:57;;;;;;;1.10;0.55;;;20.00;82.10;;;;;;5052383;28;20029;-79
2022/09/01 11:22:39;;;;;;;0.82;0.50;;;20.00;81.30;;;;;;5039042;28;20047;-79
2022/09/01 11:25:07;;;;;;;0.90;0.40;;;20.00;81.60;;;;;;5055701;28;20040;-80
2022/09/01 11:27:59;;;;;;;1.95;0.77;;;20.20;82.30;;;;;;5037738;28;20016;-81
2022/09/01 11:30:51;;;;;;;0.60;0.50;;;20.50;80.70;;;;;;5048117;28;20049;-80
2022/09/01 11:33:46;;;;;;;2.10;0.63;;;20.60;81.20;;;;;;5042238;28;20247;-81
2022/09/01 11:36:34;;;;;;;2.88;0.50;;;20.60;81.50;;;;;;5048943;28;20056;-81
2022/09/01 11:39:21;;;;;;;0.93;0.50;;;20.70;82.40;;;;;;5045634;28;20111;-80
2022/09/01 11:42:22;;;;;;;3.15;0.60;;;20.70;82.40;;;;;;5044293;28;20084;-80
2022/09/01 11:44:51;;;;;;;0.93;0.60;;;20.70;82.00;;;;;;5063671;28;20064;-80
2022/09/01 11:47:21;;;;;;;1.00;0.57;;;20.80;82.10;;;;;;5065077;28;20025;-81
2022/09/01 11:49:58;;;;;;;1.30;0.50;;;20.90;81.90;;;;;;5045960;28;20333;-80
2022/09/01 11:52:30;;;;;;;0.98;0.73;;;21.00;83.10;;;;;;5049577;28;20092;-79
2022/09/01 11:54:56;;;;;;;2.03;0.60;;;21.20;82.10;;;;;;5049017;28;20051;-79
2022/09/01 11:57:27;;;;;;;4.72;0.80;;;21.30;82.30;;;;;;5051168;28;20033;-79
2022/09/01 11:59:55;;;;;;;1.38;0.50;;;21.50;81.50;;;;;;5033406;28;20021;-80
2022/09/01 12:02:32;;;;;;;5.22;0.60;;;21.90;78.90;;;;;;5050457;28;20089;-80
2022/09/01 12:04:59;;;;;;;0.70;0.50;;;22.40;76.00;;;;;;5048784;28;20103;-78
2022/09/01 12:07:27;;;;;;;5.38;2.97;;;22.90;74.40;;;;;;5066231;28;20054;-80
2022/09/01 12:09:54;;;;;;;6.22;2.88;;;22.90;77.50;;;;;;5034083;28;20043;-80
2022/09/01 12:12:34;;;;;;;2.53;1.02;;;23.00;79.10;;;;;;5051671;28;20036;-80
2022/09/01 12:15:10;;;;;;;0.90;0.60;;;22.70;73.30;;;;;;5046982;28;20033;-81
2022/09/01 12:17:36;;;;;;;1.20;0.50;;;22.60;74.80;;;;;;5033932;28;20017;-79
2022/09/01 12:20:41;;;;;;;1.52;0.57;;;22.30;74.50;;;;;;5050511;28;20059;-79
2022/09/01 12:23:36;;;;;;;1.52;0.82;;;22.00;77.70;;;;;;4950055;29;20042;-79
2022/09/01 12:26:07;;;;;;;0.70;0.57;;;22.00;76.70;;;;;;4950731;29;20043;-80
2022/09/01 12:28:34;;;;;;;;;;;22.10;76.80;;;;;;4952117;29;20039;-79
2022/09/01 12:31:04;;;;;;;0.60;0.57;;;23.10;74.80;;;;;;4967869;29;19914;-79
2022/09/01 12:33:32;;;;;;;3.42;0.70;;;24.20;72.10;;;;;;4949780;28;20035;-79
2022/09/01 12:36:22;;;;;;;2.15;0.63;;;25.00;68.30;;;;;;4945947;29;20610;-79
2022/09/01 12:38:48;;;;;;;1.10;0.50;;;25.70;66.20;;;;;;4951001;29;20032;-79
2022/09/01 12:41:36;;;;;;;0.73;0.50;;;26.20;64.20;;;;;;4953942;29;20103;-79
2022/09/01 12:44:27;;;;;;;1.92;0.52;;;26.60;61.90;;;;;;4969806;29;20034;-79
2022/09/01 12:46:53;;;;;;;1.42;0.70;;;27.70;60.30;;;;;;4966956;28;20042;-79
2022/09/01 12:49:26;;;;;;;1.73;0.70;;;28.50;59.10;;;;;;4952292;28;20046;-79
2022/09/01 12:52:18;;;;;;;1.10;0.55;;;28.50;55.40;;;;;;4967286;28;20031;-78
2022/09/01 12:54:51;;;;;;;1.15;0.70;;;29.00;54.30;;;;;;5037435;28;20144;-79
2022/09/01 12:57:31;;;;;;;1.45;0.80;;;28.70;53.60;;;;;;5050673;28;20021;-79
2022/09/01 13:00:19;;;;;;;1.35;0.98;;;28.80;53.90;;;;;;5037218;28;20025;-79
2022/09/01 13:02:49;;;;;;;1.08;0.90;;;28.20;54.40;;;;;;5051666;28;20025;-81
2022/09/01 13:05:27;;;;;;;0.98;0.70;;;28.20;53.90;;;;;;5066726;28;20024;-80
2022/09/01 13:07:59;;;;;;;0.40;0.40;;;28.00;52.90;;;;;;5050927;28;20033;-81
2022/09/01 13:10:30;;;;;;;0.93;0.60;;;28.30;52.40;;;;;;5033773;28;20055;-80
2022/09/01 13:13:00;;;;;;;2.20;0.63;;;27.90;51.80;;;;;;5032919;28;20052;-80
2022/09/01 13:15:27;;;;;;;1.20;0.60;;;26.90;52.90;;;;;;5051092;28;20041;-79